ěÝzenÝ letovÚho provozu ╚eskÚ republiky
Letiste: LKKB Aktualizace: 31.01.2023 17:00:32  UTC
 METAR LKKB 31.01. 17:00 ...
METAR LKKB 311700Z 23019KT 9999 FEW020 OVC050 03/M01 Q1015 NOSIG RMK BLU BLU=
 TAF LKKB 31.01. 11:00 ...
TAF LKKB 311100Z 3112/0112 26016KT 9999 BKN035      TEMPO 3112/0102 6000 RA BKN022      TEMPO 3116/0102 26020G30KT      PROB40 TEMPO 3116/3120 2000 RASN BKN012=